Acme, Canada
Current Conditions -  °F | °C
As of 4:00 PM on Saturday 25 Oct 2014 (Local Time) from CYYC Reporting Station
Few Clouds Few Clouds  
Wind Chill: 50°   Ceiling: Unl
Heat Index: 50°   Visibility: 40mi
Dew Point: 28°   Wind: 22mph
Humidity: 43%   Direction: 160°SSE
Pressure: 29.66"   Gusts: NA
Location:  51.5°N, 113.5°W
Report Text: CYYC 252200Z 16019KT 40SM FEW090 FEW200 10/M02 A2966 RMK AC1CI1 CI TR SLP071 DENSITY ALT 4100FT
Loading
Personal Weather Stations






























Interactive Weather Map
Tropical Storm Tracking
New forecast layout! Learn more

10-Day Weather Forecast

Advertisements
Track Severe Weather on mobile